Fort Loudoun Observed Data For Previous 48 Hours

Caption
Day and Hour Reservoir Elevation (behind dam)* Tailwater Elevation (below dam)* Average Hourly Discharge*
12/11/2018 2 AM EST 808.39 743.43 46,906
12/11/2018 3 AM EST 808.33 743.44 46,922
12/11/2018 4 AM EST 808.30 743.44 46,950
12/11/2018 5 AM EST 808.25 743.43 46,964
12/11/2018 6 AM EST 808.21 743.42 46,970
12/11/2018 7 AM EST 808.16 743.43 46,965
12/11/2018 8 AM EST 808.12 743.42 46,938
12/11/2018 9 AM EST 808.14 743.44 46,901
12/11/2018 10 AM EST 808.12 743.44 46,827
12/11/2018 11 AM EST 808.12 743.42 46,791
12/11/2018 12 PM EST 808.11 743.46 46,822
12/11/2018 1 PM EST 808.11 743.44 46,767
12/11/2018 2 PM EST 808.11 743.45 46,777
12/11/2018 3 PM EST 808.10 743.47 46,852
12/11/2018 4 PM EST 808.09 743.50 46,929
12/11/2018 5 PM EST 808.08 743.50 46,982
12/11/2018 6 PM EST 808.08 743.51 46,977
12/11/2018 7 PM EST 808.07 743.50 46,947
12/11/2018 8 PM EST 808.06 743.52 46,943
12/11/2018 9 PM EST 808.06 743.52 46,924
12/11/2018 10 PM EST 808.05 743.51 46,998
12/11/2018 11 PM EST 808.04 743.51 47,012
12/12/2018 12 AM EST 808.03 743.52 46,918
12/12/2018 1 AM EST 808.02 743.50 46,900
12/12/2018 2 AM EST 808.01 743.52 46,917
12/12/2018 3 AM EST 808.01 743.52 46,871
12/12/2018 4 AM EST 808.00 743.54 46,941
12/12/2018 5 AM EST 808.04 742.90 42,403
12/12/2018 6 AM EST 808.03 743.07 41,141
12/12/2018 7 AM EST 808.00 743.27 46,623
12/12/2018 8 AM EST 808.00 743.41 46,849
12/12/2018 9 AM EST 807.99 743.47 46,990
12/12/2018 10 AM EST 807.99 743.52 47,067
12/12/2018 11 AM EST 807.95 743.53 47,102
12/12/2018 12 PM EST 807.94 743.56 47,121
12/12/2018 1 PM EST 807.93 743.59 47,098
12/12/2018 2 PM EST 807.89 743.58 47,166
12/12/2018 3 PM EST 807.86 743.59 47,211
12/12/2018 4 PM EST 807.84 743.58 47,251
12/12/2018 5 PM EST 807.80 743.57 47,206
12/12/2018 6 PM EST 807.77 743.58 47,197
12/12/2018 7 PM EST 807.77 743.56 47,109
12/12/2018 8 PM EST 807.75 743.56 47,125
12/12/2018 9 PM EST 807.73 743.54 47,082
12/12/2018 10 PM EST 807.71 743.56 47,028
12/12/2018 11 PM EST 807.71 743.53 47,051
12/13/2018 12 AM EST 807.70 743.55 47,096
12/13/2018 1 AM EST 807.69 743.55 47,025
12/13/2018 2 AM EST 807.67 743.53 47,037
12/13/2018 3 AM EST 807.63 743.55 47,021
12/13/2018 4 AM EST 807.60 743.54 47,002
12/13/2018 5 AM EST 807.57 743.52 47,023
12/13/2018 6 AM EST 807.53 743.51 46,962
12/13/2018 7 AM EST 807.49 743.51 47,046
12/13/2018 8 AM EST 807.45 743.50 47,001
12/13/2018 9 AM EST 807.44 743.49 46,945
12/13/2018 10 AM EST 807.41 743.49 46,940
12/13/2018 11 AM EST 807.39 743.50 46,960
12/13/2018 12 PM EST 807.37 743.48 46,978
12/13/2018 1 PM EST 807.35 743.52 47,090
12/13/2018 2 PM EST 807.33 743.50 47,069
12/13/2018 3 PM EST 807.31 743.51 47,077
12/13/2018 4 PM EST 807.34 742.99 44,413
12/13/2018 5 PM EST 807.36 742.74 39,011

Elevations are in feet above sea level. Discharges are in cubic feet per second and are reported at the end of the hour.